Portada
METAR-TAF:

METAR-TAF

Aeroports :

Tacna, Perú

latitud: 18-04S, longitud: 070-18W, altitud: 468 m

Observació

L'informe es va fer fa 11 hores i 57 minuts, a les 23:00 UTC
Vent 6 kt del Oest/Sud-Oest, variant entre Sud/Sud-Oest i Oest
Temperatura 20°C
Humitat 68%
Pressió 1013 hPa
Visibilitat 10 km o més
sense núvols per sota de 1500 mi sense presència de cumulonimbus.

METAR: SPTN 242300Z 24006KT 210V270 CAVOK 20/14 Q1013 RMK PP000

Hora: 05:57 (10:57 UTC)

Pronòstic

L'informe es va fer fa 17 hores i 57 minuts, a les 17:00 UTC
Pronòstic vàlid del 24 a les 18 UTC al 25 a les 18 UTC
Vent 10 kt del Sud-Oest
Visibilitat 10 km o més
Escasses núvols a una alçada de 10000 ft
Evolucionant progressivament
l' 24 a les 22 UTC al 24 a les 24 UTC
Vent 4 kt del Oest
Evolucionant progressivament
l' 25 a les 16 UTC al 25 a les 18 UTC
Vent 10 kt del Sud-Oest

TAF: SPTN 241700Z 2418/2518 22010KT 9999 FEW100 TX26/2419Z TN18/2511Z BECMG 2422/2424 28004KT BECMG 2516/2518 22010KT

Observacions i pronòstics meteorològics de més de 4000 aeroports (METAR i TAF).

Les estacions disponibles són els punts grocs i vermells al mapa.

Posi el ratolí al punt desitjat per veure el nom de l'estació.

Feu clic per veure les observacions i els pronòstics meteorològics.

Per canviar el mapa: feu clic els botons verds amb una creu de color negre per apropar; al botó verd amb un guió per allunyar la imatge; o en les fletxes verdes per a mapes adjacents.


METAR-TAF: